sensor_id;sensor_type;location;lat;lon;timestamp;P1;durP1;ratioP1;P2;durP2;ratioP2
40116;SDS011;25829;50.228;18.936;2022-11-18T00:00:46;12.30;;;8.20;;
40116;SDS011;25829;50.228;18.936;2022-11-18T00:03:47;15.10;;;8.27;;
40116;SDS011;25829;50.228;18.936;2022-11-18T00:06:51;11.77;;;8.37;;
40116;SDS011;25829;50.228;18.936;2022-11-18T00:09:52;13.63;;;8.43;;
40116;SDS011;25829;50.228;18.936;2022-11-18T00:12:52;11.30;;;7.53;;
40116;SDS011;25829;50.228;18.936;2022-11-18T00:16:21;10.57;;;7.47;;
40116;SDS011;25829;50.228;18.936;2022-11-18T00:19:24;12.37;;;8.47;;
40116;SDS011;25829;50.228;18.936;2022-11-18T00:22:26;10.97;;;8.17;;
40116;SDS011;25829;50.228;18.936;2022-11-18T00:25:27;12.30;;;7.90;;
40116;SDS011;25829;50.228;18.936;2022-11-18T00:28:34;11.17;;;8.40;;
40116;SDS011;25829;50.228;18.936;2022-11-18T00:31:35;13.10;;;8.00;;
40116;SDS011;25829;50.228;18.936;2022-11-18T00:34:37;11.60;;;7.83;;
40116;SDS011;25829;50.228;18.936;2022-11-18T00:37:38;9.47;;;7.13;;
40116;SDS011;25829;50.228;18.936;2022-11-18T00:44:16;10.50;;;7.90;;
40116;SDS011;25829;50.228;18.936;2022-11-18T00:47:17;10.50;;;7.10;;
40116;SDS011;25829;50.228;18.936;2022-11-18T00:50:17;10.13;;;7.43;;
40116;SDS011;25829;50.228;18.936;2022-11-18T00:53:36;10.20;;;7.53;;
40116;SDS011;25829;50.228;18.936;2022-11-18T01:03:24;10.97;;;8.03;;
40116;SDS011;25829;50.228;18.936;2022-11-18T01:06:26;12.80;;;9.23;;
40116;SDS011;25829;50.228;18.936;2022-11-18T01:09:27;12.37;;;8.00;;
40116;SDS011;25829;50.228;18.936;2022-11-18T01:12:37;9.57;;;7.27;;
40116;SDS011;25829;50.228;18.936;2022-11-18T01:15:56;11.43;;;7.73;;
40116;SDS011;25829;50.228;18.936;2022-11-18T01:18:58;8.73;;;7.10;;
40116;SDS011;25829;50.228;18.936;2022-11-18T01:21:59;11.33;;;7.77;;
40116;SDS011;25829;50.228;18.936;2022-11-18T01:25:02;10.77;;;7.83;;
40116;SDS011;25829;50.228;18.936;2022-11-18T01:28:03;10.30;;;7.63;;
40116;SDS011;25829;50.228;18.936;2022-11-18T01:31:05;13.87;;;7.67;;
40116;SDS011;25829;50.228;18.936;2022-11-18T01:34:08;15.80;;;8.80;;
40116;SDS011;25829;50.228;18.936;2022-11-18T01:37:15;12.30;;;8.10;;
40116;SDS011;25829;50.228;18.936;2022-11-18T01:40:16;13.13;;;8.10;;
40116;SDS011;25829;50.228;18.936;2022-11-18T01:43:17;14.03;;;9.27;;
40116;SDS011;25829;50.228;18.936;2022-11-18T01:46:21;13.17;;;8.90;;
40116;SDS011;25829;50.228;18.936;2022-11-18T01:49:25;17.57;;;9.40;;
40116;SDS011;25829;50.228;18.936;2022-11-18T01:52:27;12.67;;;9.33;;
40116;SDS011;25829;50.228;18.936;2022-11-18T01:55:30;14.63;;;9.27;;
40116;SDS011;25829;50.228;18.936;2022-11-18T01:58:38;14.93;;;9.13;;
40116;SDS011;25829;50.228;18.936;2022-11-18T02:01:42;11.60;;;8.10;;
40116;SDS011;25829;50.228;18.936;2022-11-18T02:04:45;11.80;;;8.17;;
40116;SDS011;25829;50.228;18.936;2022-11-18T02:07:54;14.67;;;9.63;;
40116;SDS011;25829;50.228;18.936;2022-11-18T02:10:56;12.70;;;8.33;;
40116;SDS011;25829;50.228;18.936;2022-11-18T02:14:01;12.53;;;8.90;;
40116;SDS011;25829;50.228;18.936;2022-11-18T02:17:38;13.53;;;8.60;;
40116;SDS011;25829;50.228;18.936;2022-11-18T02:30:59;10.03;;;8.60;;
40116;SDS011;25829;50.228;18.936;2022-11-18T02:40:48;13.37;;;8.30;;
40116;SDS011;25829;50.228;18.936;2022-11-18T02:47:26;12.13;;;8.53;;
40116;SDS011;25829;50.228;18.936;2022-11-18T02:50:31;12.67;;;8.00;;
40116;SDS011;25829;50.228;18.936;2022-11-18T02:53:35;11.07;;;8.17;;
40116;SDS011;25829;50.228;18.936;2022-11-18T02:56:39;11.03;;;7.93;;
40116;SDS011;25829;50.228;18.936;2022-11-18T02:59:43;12.10;;;7.67;;
40116;SDS011;25829;50.228;18.936;2022-11-18T03:02:44;10.97;;;7.57;;
40116;SDS011;25829;50.228;18.936;2022-11-18T03:05:57;12.30;;;7.87;;
40116;SDS011;25829;50.228;18.936;2022-11-18T03:09:37;10.67;;;7.03;;
40116;SDS011;25829;50.228;18.936;2022-11-18T03:12:52;10.57;;;7.07;;
40116;SDS011;25829;50.228;18.936;2022-11-18T03:16:04;9.33;;;6.70;;
40116;SDS011;25829;50.228;18.936;2022-11-18T03:25:40;10.47;;;7.13;;
40116;SDS011;25829;50.228;18.936;2022-11-18T03:29:04;9.53;;;6.67;;
40116;SDS011;25829;50.228;18.936;2022-11-18T03:32:18;8.77;;;5.90;;
40116;SDS011;25829;50.228;18.936;2022-11-18T03:35:25;8.73;;;6.43;;
40116;SDS011;25829;50.228;18.936;2022-11-18T03:38:30;10.13;;;6.47;;
40116;SDS011;25829;50.228;18.936;2022-11-18T03:41:41;9.77;;;6.50;;
40116;SDS011;25829;50.228;18.936;2022-11-18T03:44:49;9.17;;;6.60;;
40116;SDS011;25829;50.228;18.936;2022-11-18T03:47:57;8.00;;;6.53;;
40116;SDS011;25829;50.228;18.936;2022-11-18T03:51:41;9.20;;;6.67;;
40116;SDS011;25829;50.228;18.936;2022-11-18T03:54:47;8.93;;;6.60;;
40116;SDS011;25829;50.228;18.936;2022-11-18T03:58:35;9.20;;;7.30;;
40116;SDS011;25829;50.228;18.936;2022-11-18T04:01:35;9.00;;;6.97;;
40116;SDS011;25829;50.228;18.936;2022-11-18T04:04:51;8.97;;;6.73;;
40116;SDS011;25829;50.228;18.936;2022-11-18T04:07:58;10.53;;;7.17;;
40116;SDS011;25829;50.228;18.936;2022-11-18T04:11:18;8.00;;;6.40;;
40116;SDS011;25829;50.228;18.936;2022-11-18T04:14:49;9.43;;;6.50;;
40116;SDS011;25829;50.228;18.936;2022-11-18T04:17:57;7.57;;;5.80;;
40116;SDS011;25829;50.228;18.936;2022-11-18T04:20:58;8.83;;;6.20;;
40116;SDS011;25829;50.228;18.936;2022-11-18T04:23:59;7.23;;;5.33;;
40116;SDS011;25829;50.228;18.936;2022-11-18T04:27:00;7.30;;;5.80;;
40116;SDS011;25829;50.228;18.936;2022-11-18T04:30:02;7.60;;;5.83;;
40116;SDS011;25829;50.228;18.936;2022-11-18T04:33:04;8.00;;;5.80;;
40116;SDS011;25829;50.228;18.936;2022-11-18T04:36:13;8.43;;;5.60;;
40116;SDS011;25829;50.228;18.936;2022-11-18T04:39:14;8.10;;;6.57;;
40116;SDS011;25829;50.228;18.936;2022-11-18T04:42:17;8.43;;;6.60;;
40116;SDS011;25829;50.228;18.936;2022-11-18T04:45:18;8.70;;;6.20;;
40116;SDS011;25829;50.228;18.936;2022-11-18T04:48:21;10.17;;;7.17;;
40116;SDS011;25829;50.228;18.936;2022-11-18T04:51:22;10.37;;;6.70;;
40116;SDS011;25829;50.228;18.936;2022-11-18T04:54:25;8.17;;;6.53;;
40116;SDS011;25829;50.228;18.936;2022-11-18T04:57:27;10.27;;;7.37;;
40116;SDS011;25829;50.228;18.936;2022-11-18T05:00:27;8.07;;;6.30;;
40116;SDS011;25829;50.228;18.936;2022-11-18T05:03:28;8.30;;;6.20;;
40116;SDS011;25829;50.228;18.936;2022-11-18T05:06:29;11.07;;;7.00;;
40116;SDS011;25829;50.228;18.936;2022-11-18T05:09:31;10.97;;;6.87;;
40116;SDS011;25829;50.228;18.936;2022-11-18T05:16:14;9.23;;;7.07;;
40116;SDS011;25829;50.228;18.936;2022-11-18T05:19:15;11.23;;;7.67;;
40116;SDS011;25829;50.228;18.936;2022-11-18T05:22:19;9.40;;;6.93;;
40116;SDS011;25829;50.228;18.936;2022-11-18T05:25:20;9.90;;;7.13;;
40116;SDS011;25829;50.228;18.936;2022-11-18T05:32:23;9.07;;;7.73;;
40116;SDS011;25829;50.228;18.936;2022-11-18T05:35:24;11.57;;;8.57;;
40116;SDS011;25829;50.228;18.936;2022-11-18T05:38:25;12.23;;;9.37;;
40116;SDS011;25829;50.228;18.936;2022-11-18T05:41:26;14.40;;;8.40;;
40116;SDS011;25829;50.228;18.936;2022-11-18T05:44:45;11.77;;;8.40;;
40116;SDS011;25829;50.228;18.936;2022-11-18T05:47:46;11.43;;;8.43;;
40116;SDS011;25829;50.228;18.936;2022-11-18T05:51:03;10.60;;;8.07;;
40116;SDS011;25829;50.228;18.936;2022-11-18T05:54:07;12.77;;;8.87;;
40116;SDS011;25829;50.228;18.936;2022-11-18T06:00:37;10.23;;;7.73;;
40116;SDS011;25829;50.228;18.936;2022-11-18T06:03:38;11.40;;;8.60;;
40116;SDS011;25829;50.228;18.936;2022-11-18T06:06:57;13.27;;;8.60;;
40116;SDS011;25829;50.228;18.936;2022-11-18T06:10:29;13.53;;;8.77;;
40116;SDS011;25829;50.228;18.936;2022-11-18T06:13:41;12.87;;;8.90;;
40116;SDS011;25829;50.228;18.936;2022-11-18T06:17:22;9.50;;;8.07;;
40116;SDS011;25829;50.228;18.936;2022-11-18T06:20:50;11.13;;;8.07;;
40116;SDS011;25829;50.228;18.936;2022-11-18T06:28:46;12.70;;;8.10;;
40116;SDS011;25829;50.228;18.936;2022-11-18T06:32:08;10.53;;;8.83;;
40116;SDS011;25829;50.228;18.936;2022-11-18T06:39:10;11.57;;;8.83;;
40116;SDS011;25829;50.228;18.936;2022-11-18T06:42:29;11.70;;;8.50;;
40116;SDS011;25829;50.228;18.936;2022-11-18T06:46:04;12.93;;;9.57;;
40116;SDS011;25829;50.228;18.936;2022-11-18T06:49:36;16.17;;;10.07;;
40116;SDS011;25829;50.228;18.936;2022-11-18T06:52:53;14.37;;;10.63;;
40116;SDS011;25829;50.228;18.936;2022-11-18T06:56:28;17.93;;;10.27;;
40116;SDS011;25829;50.228;18.936;2022-11-18T07:00:05;18.83;;;11.07;;
40116;SDS011;25829;50.228;18.936;2022-11-18T07:03:15;17.67;;;10.17;;
40116;SDS011;25829;50.228;18.936;2022-11-18T07:06:23;15.57;;;9.57;;
40116;SDS011;25829;50.228;18.936;2022-11-18T07:09:29;14.20;;;8.90;;
40116;SDS011;25829;50.228;18.936;2022-11-18T07:12:32;15.03;;;10.30;;
40116;SDS011;25829;50.228;18.936;2022-11-18T07:15:36;20.83;;;10.03;;
40116;SDS011;25829;50.228;18.936;2022-11-18T07:18:37;14.80;;;10.33;;
40116;SDS011;25829;50.228;18.936;2022-11-18T07:21:56;14.70;;;9.90;;
40116;SDS011;25829;50.228;18.936;2022-11-18T07:25:07;15.33;;;10.23;;
40116;SDS011;25829;50.228;18.936;2022-11-18T07:28:08;17.43;;;9.73;;
40116;SDS011;25829;50.228;18.936;2022-11-18T07:31:13;13.87;;;9.93;;
40116;SDS011;25829;50.228;18.936;2022-11-18T07:34:22;13.13;;;9.07;;
40116;SDS011;25829;50.228;18.936;2022-11-18T07:37:23;14.83;;;10.23;;
40116;SDS011;25829;50.228;18.936;2022-11-18T07:41:04;10.77;;;8.43;;
40116;SDS011;25829;50.228;18.936;2022-11-18T07:44:06;14.23;;;9.80;;
40116;SDS011;25829;50.228;18.936;2022-11-18T07:47:11;14.67;;;9.93;;
40116;SDS011;25829;50.228;18.936;2022-11-18T07:50:11;13.17;;;8.97;;
40116;SDS011;25829;50.228;18.936;2022-11-18T07:53:12;11.73;;;9.33;;
40116;SDS011;25829;50.228;18.936;2022-11-18T07:56:13;11.47;;;8.07;;
40116;SDS011;25829;50.228;18.936;2022-11-18T07:59:29;18.97;;;9.37;;
40116;SDS011;25829;50.228;18.936;2022-11-18T08:06:10;14.83;;;7.97;;
40116;SDS011;25829;50.228;18.936;2022-11-18T08:09:14;13.73;;;8.80;;
40116;SDS011;25829;50.228;18.936;2022-11-18T08:19:32;14.00;;;8.40;;
40116;SDS011;25829;50.228;18.936;2022-11-18T08:37:53;11.50;;;7.83;;
40116;SDS011;25829;50.228;18.936;2022-11-18T08:44:28;11.53;;;7.30;;
40116;SDS011;25829;50.228;18.936;2022-11-18T08:47:38;14.17;;;8.57;;
40116;SDS011;25829;50.228;18.936;2022-11-18T08:50:39;12.83;;;7.83;;
40116;SDS011;25829;50.228;18.936;2022-11-18T08:53:40;13.37;;;8.53;;
40116;SDS011;25829;50.228;18.936;2022-11-18T08:56:47;13.83;;;9.40;;
40116;SDS011;25829;50.228;18.936;2022-11-18T08:59:49;12.27;;;7.93;;
40116;SDS011;25829;50.228;18.936;2022-11-18T09:03:11;12.27;;;8.60;;
40116;SDS011;25829;50.228;18.936;2022-11-18T09:06:16;14.10;;;9.03;;
40116;SDS011;25829;50.228;18.936;2022-11-18T09:09:19;15.63;;;9.60;;
40116;SDS011;25829;50.228;18.936;2022-11-18T09:12:20;14.33;;;9.20;;
40116;SDS011;25829;50.228;18.936;2022-11-18T09:15:21;13.30;;;9.40;;
40116;SDS011;25829;50.228;18.936;2022-11-18T09:18:26;12.70;;;9.77;;
40116;SDS011;25829;50.228;18.936;2022-11-18T09:21:27;15.20;;;10.13;;
40116;SDS011;25829;50.228;18.936;2022-11-18T09:24:27;13.13;;;8.97;;
40116;SDS011;25829;50.228;18.936;2022-11-18T09:27:28;11.60;;;8.70;;
40116;SDS011;25829;50.228;18.936;2022-11-18T09:30:33;11.27;;;8.63;;
40116;SDS011;25829;50.228;18.936;2022-11-18T09:33:40;12.37;;;8.60;;
40116;SDS011;25829;50.228;18.936;2022-11-18T09:36:41;11.47;;;8.17;;
40116;SDS011;25829;50.228;18.936;2022-11-18T09:39:45;10.93;;;7.67;;
40116;SDS011;25829;50.228;18.936;2022-11-18T09:42:56;12.77;;;9.17;;
40116;SDS011;25829;50.228;18.936;2022-11-18T09:53:49;17.13;;;9.83;;
40116;SDS011;25829;50.228;18.936;2022-11-18T09:56:51;15.87;;;10.00;;
40116;SDS011;25829;50.228;18.936;2022-11-18T10:47:23;18.10;;;11.13;;
40116;SDS011;25829;50.228;18.936;2022-11-18T10:51:18;17.73;;;11.03;;
40116;SDS011;25829;50.228;18.936;2022-11-18T10:53:52;15.90;;;11.47;;
40116;SDS011;25829;50.228;18.936;2022-11-18T10:57:20;23.37;;;11.00;;
40116;SDS011;25829;50.228;18.936;2022-11-18T11:00:45;14.40;;;9.43;;
40116;SDS011;25829;50.228;18.936;2022-11-18T11:07:16;17.23;;;10.43;;
40116;SDS011;25829;50.228;18.936;2022-11-18T11:10:31;14.70;;;10.63;;
40116;SDS011;25829;50.228;18.936;2022-11-18T11:13:32;13.73;;;9.50;;
40116;SDS011;25829;50.228;18.936;2022-11-18T11:16:49;17.87;;;9.87;;
40116;SDS011;25829;50.228;18.936;2022-11-18T11:20:26;16.33;;;11.10;;
40116;SDS011;25829;50.228;18.936;2022-11-18T11:23:34;20.90;;;12.23;;
40116;SDS011;25829;50.228;18.936;2022-11-18T11:30:25;17.27;;;11.60;;
40116;SDS011;25829;50.228;18.936;2022-11-18T12:11:47;17.50;;;11.37;;
40116;SDS011;25829;50.228;18.936;2022-11-18T12:19:57;19.27;;;11.83;;
40116;SDS011;25829;50.228;18.936;2022-11-18T12:26:48;17.03;;;11.93;;
40116;SDS011;25829;50.228;18.936;2022-11-18T12:29:52;15.43;;;10.77;;
40116;SDS011;25829;50.228;18.936;2022-11-18T12:32:55;18.83;;;11.47;;
40116;SDS011;25829;50.228;18.936;2022-11-18T12:36:02;17.30;;;11.03;;
40116;SDS011;25829;50.228;18.936;2022-11-18T12:46:01;18.47;;;11.20;;
40116;SDS011;25829;50.228;18.936;2022-11-18T12:55:37;14.67;;;9.67;;
40116;SDS011;25829;50.228;18.936;2022-11-18T12:58:38;16.47;;;11.33;;
40116;SDS011;25829;50.228;18.936;2022-11-18T13:05:11;16.30;;;9.80;;
40116;SDS011;25829;50.228;18.936;2022-11-18T13:08:31;17.53;;;11.60;;
40116;SDS011;25829;50.228;18.936;2022-11-18T13:11:46;18.63;;;11.30;;
40116;SDS011;25829;50.228;18.936;2022-11-18T13:14:57;14.80;;;10.00;;
40116;SDS011;25829;50.228;18.936;2022-11-18T13:18:45;16.77;;;10.93;;
40116;SDS011;25829;50.228;18.936;2022-11-18T13:26:17;16.57;;;12.07;;
40116;SDS011;25829;50.228;18.936;2022-11-18T13:32:50;13.80;;;10.33;;
40116;SDS011;25829;50.228;18.936;2022-11-18T13:35:57;14.03;;;9.63;;
40116;SDS011;25829;50.228;18.936;2022-11-18T13:39:02;13.50;;;10.10;;
40116;SDS011;25829;50.228;18.936;2022-11-18T13:42:43;12.83;;;9.07;;
40116;SDS011;25829;50.228;18.936;2022-11-18T13:45:52;13.90;;;9.93;;
40116;SDS011;25829;50.228;18.936;2022-11-18T13:48:54;12.03;;;8.40;;
40116;SDS011;25829;50.228;18.936;2022-11-18T13:55:14;14.43;;;10.10;;
40116;SDS011;25829;50.228;18.936;2022-11-18T14:02:41;15.53;;;10.87;;
40116;SDS011;25829;50.228;18.936;2022-11-18T14:05:51;14.70;;;10.67;;
40116;SDS011;25829;50.228;18.936;2022-11-18T14:12:28;14.83;;;9.63;;
40116;SDS011;25829;50.228;18.936;2022-11-18T14:15:37;14.43;;;10.50;;
40116;SDS011;25829;50.228;18.936;2022-11-18T14:18:50;15.27;;;10.47;;
40116;SDS011;25829;50.228;18.936;2022-11-18T14:21:51;15.67;;;12.27;;
40116;SDS011;25829;50.228;18.936;2022-11-18T14:28:31;17.60;;;12.80;;
40116;SDS011;25829;50.228;18.936;2022-11-18T14:31:36;18.23;;;12.07;;
40116;SDS011;25829;50.228;18.936;2022-11-18T14:34:36;16.03;;;11.30;;
40116;SDS011;25829;50.228;18.936;2022-11-18T14:44:10;18.83;;;12.57;;
40116;SDS011;25829;50.228;18.936;2022-11-18T14:50:47;20.33;;;12.57;;
40116;SDS011;25829;50.228;18.936;2022-11-18T14:53:47;15.37;;;10.10;;
40116;SDS011;25829;50.228;18.936;2022-11-18T14:57:21;15.73;;;10.13;;
40116;SDS011;25829;50.228;18.936;2022-11-18T15:00:21;13.87;;;9.30;;
40116;SDS011;25829;50.228;18.936;2022-11-18T15:03:22;16.63;;;11.03;;
40116;SDS011;25829;50.228;18.936;2022-11-18T15:06:26;15.90;;;10.90;;
40116;SDS011;25829;50.228;18.936;2022-11-18T15:09:36;14.03;;;10.17;;
40116;SDS011;25829;50.228;18.936;2022-11-18T15:12:37;14.80;;;11.10;;
40116;SDS011;25829;50.228;18.936;2022-11-18T15:15:38;20.20;;;12.63;;
40116;SDS011;25829;50.228;18.936;2022-11-18T15:18:39;18.63;;;11.30;;
40116;SDS011;25829;50.228;18.936;2022-11-18T15:21:40;21.67;;;11.43;;
40116;SDS011;25829;50.228;18.936;2022-11-18T15:24:41;16.67;;;10.60;;
40116;SDS011;25829;50.228;18.936;2022-11-18T15:27:41;16.17;;;11.30;;
40116;SDS011;25829;50.228;18.936;2022-11-18T15:30:42;15.10;;;9.03;;
40116;SDS011;25829;50.228;18.936;2022-11-18T15:33:43;13.20;;;9.47;;
40116;SDS011;25829;50.228;18.936;2022-11-18T15:36:45;17.40;;;11.90;;
40116;SDS011;25829;50.228;18.936;2022-11-18T15:39:46;16.10;;;10.70;;
40116;SDS011;25829;50.228;18.936;2022-11-18T15:42:49;14.83;;;9.37;;
40116;SDS011;25829;50.228;18.936;2022-11-18T15:45:55;10.27;;;6.73;;
40116;SDS011;25829;50.228;18.936;2022-11-18T15:48:59;15.17;;;9.57;;
40116;SDS011;25829;50.228;18.936;2022-11-18T15:52:00;14.07;;;9.73;;
40116;SDS011;25829;50.228;18.936;2022-11-18T15:55:07;20.60;;;11.23;;
40116;SDS011;25829;50.228;18.936;2022-11-18T15:58:08;15.33;;;10.07;;
40116;SDS011;25829;50.228;18.936;2022-11-18T16:01:21;17.17;;;11.30;;
40116;SDS011;25829;50.228;18.936;2022-11-18T16:08:51;21.23;;;11.97;;
40116;SDS011;25829;50.228;18.936;2022-11-18T16:15:43;17.40;;;10.80;;
40116;SDS011;25829;50.228;18.936;2022-11-18T16:18:47;14.77;;;10.70;;
40116;SDS011;25829;50.228;18.936;2022-11-18T16:21:51;14.50;;;9.57;;
40116;SDS011;25829;50.228;18.936;2022-11-18T16:25:02;16.60;;;10.10;;
40116;SDS011;25829;50.228;18.936;2022-11-18T16:31:05;16.67;;;11.37;;
40116;SDS011;25829;50.228;18.936;2022-11-18T16:34:26;18.87;;;12.00;;
40116;SDS011;25829;50.228;18.936;2022-11-18T16:37:34;19.10;;;12.50;;
40116;SDS011;25829;50.228;18.936;2022-11-18T16:40:41;19.53;;;12.23;;
40116;SDS011;25829;50.228;18.936;2022-11-18T16:51:55;16.20;;;10.30;;
40116;SDS011;25829;50.228;18.936;2022-11-18T16:55:03;17.23;;;11.50;;
40116;SDS011;25829;50.228;18.936;2022-11-18T16:58:04;16.97;;;11.60;;
40116;SDS011;25829;50.228;18.936;2022-11-18T17:01:08;13.83;;;9.80;;
40116;SDS011;25829;50.228;18.936;2022-11-18T17:04:10;20.10;;;11.57;;
40116;SDS011;25829;50.228;18.936;2022-11-18T17:07:11;21.33;;;12.70;;
40116;SDS011;25829;50.228;18.936;2022-11-18T17:10:21;17.87;;;12.63;;
40116;SDS011;25829;50.228;18.936;2022-11-18T17:13:22;18.00;;;12.23;;
40116;SDS011;25829;50.228;18.936;2022-11-18T17:16:23;18.53;;;12.37;;
40116;SDS011;25829;50.228;18.936;2022-11-18T17:19:28;17.70;;;11.13;;
40116;SDS011;25829;50.228;18.936;2022-11-18T17:22:29;16.63;;;10.63;;
40116;SDS011;25829;50.228;18.936;2022-11-18T17:25:32;15.77;;;10.80;;
40116;SDS011;25829;50.228;18.936;2022-11-18T17:28:35;17.80;;;12.43;;
40116;SDS011;25829;50.228;18.936;2022-11-18T17:31:37;17.77;;;12.63;;
40116;SDS011;25829;50.228;18.936;2022-11-18T17:34:39;17.73;;;10.87;;
40116;SDS011;25829;50.228;18.936;2022-11-18T17:37:42;18.20;;;11.83;;
40116;SDS011;25829;50.228;18.936;2022-11-18T17:40:51;20.73;;;12.30;;
40116;SDS011;25829;50.228;18.936;2022-11-18T17:43:56;21.10;;;13.93;;
40116;SDS011;25829;50.228;18.936;2022-11-18T17:46:57;21.60;;;13.27;;
40116;SDS011;25829;50.228;18.936;2022-11-18T17:50:04;20.43;;;12.80;;
40116;SDS011;25829;50.228;18.936;2022-11-18T17:53:05;17.40;;;12.10;;
40116;SDS011;25829;50.228;18.936;2022-11-18T17:56:06;19.20;;;12.90;;
40116;SDS011;25829;50.228;18.936;2022-11-18T17:59:07;20.30;;;12.97;;
40116;SDS011;25829;50.228;18.936;2022-11-18T18:02:26;20.17;;;12.67;;
40116;SDS011;25829;50.228;18.936;2022-11-18T18:05:27;15.40;;;8.20;;
40116;SDS011;25829;50.228;18.936;2022-11-18T18:08:28;15.13;;;10.47;;
40116;SDS011;25829;50.228;18.936;2022-11-18T18:11:29;14.90;;;10.40;;
40116;SDS011;25829;50.228;18.936;2022-11-18T18:14:30;19.10;;;10.97;;
40116;SDS011;25829;50.228;18.936;2022-11-18T18:17:31;18.40;;;12.73;;
40116;SDS011;25829;50.228;18.936;2022-11-18T18:20:32;17.47;;;11.77;;
40116;SDS011;25829;50.228;18.936;2022-11-18T18:23:34;17.63;;;11.77;;
40116;SDS011;25829;50.228;18.936;2022-11-18T18:26:42;16.73;;;11.50;;
40116;SDS011;25829;50.228;18.936;2022-11-18T18:29:42;19.00;;;11.40;;
40116;SDS011;25829;50.228;18.936;2022-11-18T18:44:07;15.03;;;10.43;;
40116;SDS011;25829;50.228;18.936;2022-11-18T18:47:08;18.33;;;11.97;;
40116;SDS011;25829;50.228;18.936;2022-11-18T18:50:08;18.70;;;11.97;;
40116;SDS011;25829;50.228;18.936;2022-11-18T18:53:12;19.23;;;12.23;;
40116;SDS011;25829;50.228;18.936;2022-11-18T18:56:13;15.73;;;11.33;;
40116;SDS011;25829;50.228;18.936;2022-11-18T18:59:16;17.10;;;10.90;;
40116;SDS011;25829;50.228;18.936;2022-11-18T19:02:20;19.73;;;10.77;;
40116;SDS011;25829;50.228;18.936;2022-11-18T19:05:20;11.50;;;7.73;;
40116;SDS011;25829;50.228;18.936;2022-11-18T19:08:21;13.90;;;9.93;;
40116;SDS011;25829;50.228;18.936;2022-11-18T19:11:22;15.43;;;10.13;;
40116;SDS011;25829;50.228;18.936;2022-11-18T19:14:41;15.03;;;9.87;;
40116;SDS011;25829;50.228;18.936;2022-11-18T19:17:42;14.23;;;9.93;;
40116;SDS011;25829;50.228;18.936;2022-11-18T19:20:43;13.50;;;9.77;;
40116;SDS011;25829;50.228;18.936;2022-11-18T19:23:43;13.30;;;8.63;;
40116;SDS011;25829;50.228;18.936;2022-11-18T19:26:44;15.37;;;9.97;;
40116;SDS011;25829;50.228;18.936;2022-11-18T19:29:45;15.77;;;9.27;;
40116;SDS011;25829;50.228;18.936;2022-11-18T19:32:46;10.13;;;7.47;;
40116;SDS011;25829;50.228;18.936;2022-11-18T19:35:47;12.83;;;9.07;;
40116;SDS011;25829;50.228;18.936;2022-11-18T19:38:48;12.87;;;9.00;;
40116;SDS011;25829;50.228;18.936;2022-11-18T19:41:49;11.80;;;8.37;;
40116;SDS011;25829;50.228;18.936;2022-11-18T19:44:56;14.77;;;8.43;;
40116;SDS011;25829;50.228;18.936;2022-11-18T19:48:00;11.17;;;7.87;;
40116;SDS011;25829;50.228;18.936;2022-11-18T19:51:09;15.40;;;9.47;;
40116;SDS011;25829;50.228;18.936;2022-11-18T19:54:11;16.37;;;9.07;;
40116;SDS011;25829;50.228;18.936;2022-11-18T19:57:12;13.70;;;8.33;;
40116;SDS011;25829;50.228;18.936;2022-11-18T20:00:25;15.70;;;9.80;;
40116;SDS011;25829;50.228;18.936;2022-11-18T20:07:40;13.60;;;9.03;;
40116;SDS011;25829;50.228;18.936;2022-11-18T20:18:25;12.10;;;8.07;;
40116;SDS011;25829;50.228;18.936;2022-11-18T20:25:11;11.70;;;7.57;;
40116;SDS011;25829;50.228;18.936;2022-11-18T20:28:21;9.97;;;7.30;;
40116;SDS011;25829;50.228;18.936;2022-11-18T20:34:51;11.87;;;7.13;;
40116;SDS011;25829;50.228;18.936;2022-11-18T20:37:51;10.70;;;6.57;;
40116;SDS011;25829;50.228;18.936;2022-11-18T20:40:52;11.40;;;7.03;;
40116;SDS011;25829;50.228;18.936;2022-11-18T20:48:37;10.20;;;7.73;;
40116;SDS011;25829;50.228;18.936;2022-11-18T21:02:46;12.07;;;7.10;;
40116;SDS011;25829;50.228;18.936;2022-11-18T21:13:32;11.80;;;7.13;;
40116;SDS011;25829;50.228;18.936;2022-11-18T21:17:09;10.70;;;7.23;;
40116;SDS011;25829;50.228;18.936;2022-11-18T21:23:58;9.27;;;5.87;;
40116;SDS011;25829;50.228;18.936;2022-11-18T21:27:06;8.60;;;6.00;;
40116;SDS011;25829;50.228;18.936;2022-11-18T21:30:10;9.53;;;6.47;;
40116;SDS011;25829;50.228;18.936;2022-11-18T21:33:11;9.70;;;6.50;;
40116;SDS011;25829;50.228;18.936;2022-11-18T21:36:31;10.40;;;6.43;;
40116;SDS011;25829;50.228;18.936;2022-11-18T21:39:32;8.47;;;6.43;;
40116;SDS011;25829;50.228;18.936;2022-11-18T21:42:34;12.33;;;6.33;;
40116;SDS011;25829;50.228;18.936;2022-11-18T21:53:16;16.33;;;9.53;;
40116;SDS011;25829;50.228;18.936;2022-11-18T21:56:20;13.77;;;8.03;;
40116;SDS011;25829;50.228;18.936;2022-11-18T21:59:23;13.17;;;8.30;;
40116;SDS011;25829;50.228;18.936;2022-11-18T22:02:33;12.30;;;8.33;;
40116;SDS011;25829;50.228;18.936;2022-11-18T22:05:37;10.97;;;7.87;;
40116;SDS011;25829;50.228;18.936;2022-11-18T22:18:03;13.33;;;8.80;;
40116;SDS011;25829;50.228;18.936;2022-11-18T22:21:09;13.97;;;9.27;;
40116;SDS011;25829;50.228;18.936;2022-11-18T22:28:15;18.00;;;10.00;;
40116;SDS011;25829;50.228;18.936;2022-11-18T22:31:18;17.47;;;9.90;;
40116;SDS011;25829;50.228;18.936;2022-11-18T22:34:38;18.70;;;11.00;;
40116;SDS011;25829;50.228;18.936;2022-11-18T22:37:44;17.27;;;9.73;;
40116;SDS011;25829;50.228;18.936;2022-11-18T22:40:46;15.67;;;9.97;;
40116;SDS011;25829;50.228;18.936;2022-11-18T22:43:53;15.90;;;9.13;;
40116;SDS011;25829;50.228;18.936;2022-11-18T22:46:57;15.37;;;9.33;;
40116;SDS011;25829;50.228;18.936;2022-11-18T22:49:59;13.27;;;8.43;;
40116;SDS011;25829;50.228;18.936;2022-11-18T22:53:31;15.83;;;9.13;;
40116;SDS011;25829;50.228;18.936;2022-11-18T23:08:17;13.83;;;9.10;;
40116;SDS011;25829;50.228;18.936;2022-11-18T23:39:47;12.80;;;8.30;;
40116;SDS011;25829;50.228;18.936;2022-11-18T23:42:53;11.03;;;8.20;;
40116;SDS011;25829;50.228;18.936;2022-11-18T23:46:08;15.13;;;8.57;;
40116;SDS011;25829;50.228;18.936;2022-11-18T23:59:40;11.90;;;7.63;;
